createdAt,value
2018-10-18T00:00:36.124Z,92.27
2018-10-18T00:03:03.884Z,92.92
2018-10-18T00:05:31.849Z,93.18
2018-10-18T00:07:59.714Z,93.58
2018-10-18T00:10:27.422Z,93.46
2018-10-18T00:12:55.189Z,92.64
2018-10-18T00:15:22.907Z,91.99
2018-10-18T00:17:50.610Z,91.37
2018-10-18T00:20:18.351Z,91.70
2018-10-18T00:22:46.381Z,91.13
2018-10-18T00:25:14.658Z,90.95
2018-10-18T00:27:42.369Z,90.45
2018-10-18T00:30:11.834Z,90.79
2018-10-18T00:32:39.814Z,91.72
2018-10-18T00:35:07.798Z,91.47
2018-10-18T00:37:35.538Z,91.97
2018-10-18T00:40:03.341Z,93.91
2018-10-18T00:42:31.091Z,94.97
2018-10-18T00:44:58.798Z,95.69
2018-10-18T00:47:26.497Z,95.54
2018-10-18T00:49:54.270Z,95.92
2018-10-18T00:52:21.968Z,95.28
2018-10-18T00:54:49.662Z,95.13
2018-10-18T00:57:17.410Z,94.13
2018-10-18T00:59:45.162Z,94.25
2018-10-18T01:02:12.983Z,94.42
2018-10-18T01:04:40.639Z,94.44
2018-10-18T01:07:08.378Z,94.52
2018-10-18T01:09:36.116Z,95.02
2018-10-18T01:12:04.150Z,94.63
2018-10-18T01:14:31.851Z,93.76
2018-10-18T01:17:01.629Z,93.69
2018-10-18T01:19:29.858Z,94.10
2018-10-18T01:21:57.644Z,95.19
2018-10-18T01:24:25.589Z,94.36
2018-10-18T01:26:53.395Z,93.76
2018-10-18T01:29:21.114Z,94.08
2018-10-18T01:31:48.915Z,94.90
2018-10-18T01:34:16.645Z,95.03
2018-10-18T01:36:44.398Z,94.99
2018-10-18T01:39:12.170Z,95.02
2018-10-18T01:41:40.438Z,95.45
2018-10-18T01:44:08.267Z,95.33
2018-10-18T01:46:36.026Z,94.96
2018-10-18T01:49:03.894Z,94.66
2018-10-18T01:51:31.646Z,95.55
2018-10-18T01:53:59.462Z,95.26
2018-10-18T01:56:27.176Z,95.30
2018-10-18T01:58:54.901Z,94.93
2018-10-18T02:01:22.643Z,95.39
2018-10-18T02:03:50.409Z,96.15
2018-10-18T02:06:18.250Z,96.04
2018-10-18T02:08:45.961Z,95.83
2018-10-18T02:11:13.683Z,95.86
2018-10-18T02:13:41.458Z,96.92
2018-10-18T02:16:09.290Z,97.26
2018-10-18T02:18:37.033Z,97.03
2018-10-18T02:21:05.332Z,97.32
2018-10-18T02:23:33.063Z,97.10
2018-10-18T02:26:00.815Z,97.26
2018-10-18T02:28:28.625Z,97.52
2018-10-18T02:30:56.337Z,97.39
2018-10-18T02:33:24.068Z,97.57
2018-10-18T02:35:51.857Z,97.33
2018-10-18T02:38:19.825Z,96.58
2018-10-18T02:40:47.535Z,94.96
2018-10-18T02:43:15.253Z,94.14
2018-10-18T02:45:42.991Z,93.93
2018-10-18T02:48:10.736Z,94.67
2018-10-18T02:50:38.525Z,95.77
2018-10-18T02:53:06.277Z,96.43
2018-10-18T02:55:34.004Z,96.55
2018-10-18T02:58:01.841Z,95.47
2018-10-18T03:00:29.617Z,94.70
2018-10-18T03:02:57.319Z,95.71
2018-10-18T03:05:25.028Z,95.38
2018-10-18T03:07:52.739Z,94.74
2018-10-18T03:10:20.504Z,94.92
2018-10-18T03:12:48.254Z,95.78
2018-10-18T03:15:15.987Z,95.99
2018-10-18T03:17:43.687Z,96.11
2018-10-18T03:20:11.436Z,96.10
2018-10-18T03:22:39.222Z,96.82
2018-10-18T03:25:08.040Z,96.40
2018-10-18T03:27:35.775Z,96.43
2018-10-18T03:30:03.759Z,95.16
2018-10-18T03:32:31.518Z,94.56
2018-10-18T03:34:59.277Z,95.34
2018-10-18T03:37:26.986Z,95.55
2018-10-18T03:39:54.675Z,95.98
2018-10-18T03:42:22.397Z,95.56
2018-10-18T03:44:50.134Z,95.56
2018-10-18T03:47:17.907Z,95.39
2018-10-18T03:49:45.632Z,94.70
2018-10-18T03:52:13.389Z,94.82
2018-10-18T03:54:41.161Z,94.29
2018-10-18T03:57:08.878Z,94.65
2018-10-18T03:59:36.630Z,93.61
2018-10-18T04:02:04.646Z,93.88
2018-10-18T04:04:32.450Z,94.31
2018-10-18T04:07:00.169Z,94.49
2018-10-18T04:09:27.893Z,93.89
2018-10-18T04:11:55.636Z,94.86
2018-10-18T04:14:23.347Z,95.42
2018-10-18T04:16:51.116Z,97.01
2018-10-18T04:19:18.839Z,97.75
2018-10-18T04:21:46.544Z,97.36
2018-10-18T04:24:14.444Z,96.77
2018-10-18T04:26:42.129Z,95.88
2018-10-18T04:29:09.842Z,94.52
2018-10-18T04:31:37.561Z,94.26
2018-10-18T04:34:05.302Z,94.92
2018-10-18T04:36:33.070Z,95.79
2018-10-18T04:39:00.826Z,95.07
2018-10-18T04:41:28.893Z,94.82
2018-10-18T04:43:56.673Z,95.21
2018-10-18T04:46:24.438Z,95.33
2018-10-18T04:48:52.160Z,95.63
2018-10-18T04:51:19.925Z,95.78
2018-10-18T04:53:47.695Z,94.69
2018-10-18T04:56:15.597Z,94.64
2018-10-18T04:58:43.341Z,94.63
2018-10-18T05:01:11.162Z,94.62
2018-10-18T05:03:38.908Z,94.63
2018-10-18T05:06:06.726Z,94.53
2018-10-18T05:08:34.440Z,94.67
2018-10-18T05:11:02.163Z,94.67
2018-10-18T05:13:29.874Z,94.90
2018-10-18T05:15:57.591Z,95.21
2018-10-18T05:18:25.363Z,94.84
2018-10-18T05:20:53.200Z,94.31
2018-10-18T05:23:21.002Z,94.22
2018-10-18T05:25:49.578Z,94.85
2018-10-18T05:28:19.624Z,95.77
2018-10-18T05:30:47.659Z,95.74
2018-10-18T05:33:16.290Z,95.12
2018-10-18T05:35:44.285Z,94.84
2018-10-18T05:38:12.106Z,94.83
2018-10-18T05:40:40.197Z,94.66
2018-10-18T05:43:08.092Z,94.55
2018-10-18T05:45:35.805Z,94.20
2018-10-18T05:48:03.627Z,92.99
2018-10-18T05:50:31.994Z,93.00
2018-10-18T05:52:59.793Z,93.24
2018-10-18T05:55:27.588Z,93.39
2018-10-18T05:57:56.480Z,92.90
2018-10-18T06:00:24.381Z,92.93
2018-10-18T06:02:52.095Z,92.74
2018-10-18T06:05:19.862Z,92.27
2018-10-18T06:07:47.653Z,92.48
2018-10-18T06:10:27.113Z,92.80
2018-10-18T06:12:54.825Z,92.66
2018-10-18T06:15:22.941Z,92.44
2018-10-18T06:17:50.694Z,92.42
2018-10-18T06:20:19.198Z,92.50
2018-10-18T06:22:46.958Z,92.55
2018-10-18T06:25:14.730Z,92.83
2018-10-18T06:27:42.471Z,92.62
2018-10-18T06:30:14.756Z,92.48
2018-10-18T06:32:42.648Z,92.45
2018-10-18T06:35:11.707Z,92.10
2018-10-18T06:37:39.425Z,92.61
2018-10-18T06:40:09.906Z,92.90
2018-10-18T06:42:38.174Z,92.41
2018-10-18T06:45:07.228Z,92.07
2018-10-18T06:47:35.186Z,91.96
2018-10-18T06:50:02.991Z,91.45
2018-10-18T06:52:30.775Z,90.92
2018-10-18T06:54:58.513Z,90.69
2018-10-18T06:57:26.282Z,90.46
2018-10-18T06:59:54.128Z,90.96
2018-10-18T07:02:21.888Z,90.93
2018-10-18T07:04:49.685Z,90.05
2018-10-18T07:07:17.416Z,89.88
2018-10-18T07:09:45.122Z,89.81
2018-10-18T07:12:13.747Z,89.84
2018-10-18T07:14:41.486Z,90.27
2018-10-18T07:17:09.218Z,90.38
2018-10-18T07:19:36.954Z,89.27
2018-10-18T07:22:04.743Z,88.79
2018-10-18T07:24:32.534Z,89.40
2018-10-18T07:27:00.406Z,89.15
2018-10-18T07:29:28.126Z,89.13
2018-10-18T07:31:55.856Z,88.73
2018-10-18T07:34:23.753Z,89.14
2018-10-18T07:36:51.499Z,89.37
2018-10-18T07:39:19.230Z,89.62
2018-10-18T07:41:46.973Z,88.91
2018-10-18T07:44:14.699Z,88.55
2018-10-18T07:46:42.444Z,88.38
2018-10-18T07:49:10.576Z,88.56
2018-10-18T07:51:38.305Z,88.78
2018-10-18T07:54:06.118Z,88.74
2018-10-18T07:56:33.838Z,88.21
2018-10-18T07:59:01.603Z,88.09
2018-10-18T08:01:29.802Z,87.90
2018-10-18T08:03:57.612Z,88.09
2018-10-18T08:06:25.423Z,88.18
2018-10-18T08:08:53.162Z,88.04
2018-10-18T08:11:20.952Z,87.81
2018-10-18T08:13:48.690Z,87.28
2018-10-18T08:16:16.446Z,87.77
2018-10-18T08:18:44.199Z,88.39
2018-10-18T08:21:11.931Z,87.73
2018-10-18T08:23:39.651Z,87.51
2018-10-18T08:26:07.580Z,87.00
2018-10-18T08:28:35.374Z,87.08
2018-10-18T08:31:03.175Z,86.72
2018-10-18T08:33:30.942Z,87.34
2018-10-18T08:35:58.707Z,86.49
2018-10-18T08:38:26.447Z,86.51
2018-10-18T08:40:54.234Z,86.22
2018-10-18T08:43:21.962Z,85.15
2018-10-18T08:45:50.026Z,85.57
2018-10-18T08:48:17.829Z,85.03
2018-10-18T08:50:45.584Z,84.95
2018-10-18T08:53:13.326Z,84.59
2018-10-18T08:55:41.180Z,83.68
2018-10-18T08:58:09.163Z,83.78
2018-10-18T09:00:36.919Z,84.22
2018-10-18T09:03:04.926Z,83.66
2018-10-18T09:05:32.715Z,83.65
2018-10-18T09:08:00.594Z,83.42
2018-10-18T09:10:28.370Z,82.60
2018-10-18T09:12:56.169Z,82.93
2018-10-18T09:15:23.941Z,83.11
2018-10-18T09:17:51.670Z,82.82
2018-10-18T09:20:19.399Z,82.66
2018-10-18T09:22:47.132Z,82.24
2018-10-18T09:25:14.922Z,82.76
2018-10-18T09:27:42.641Z,81.29
2018-10-18T09:30:12.144Z,81.20
2018-10-18T09:32:39.909Z,81.43
2018-10-18T09:35:07.674Z,81.28
2018-10-18T09:37:35.440Z,81.84
2018-10-18T09:40:03.247Z,82.23
2018-10-18T09:42:30.993Z,81.63
2018-10-18T09:44:58.837Z,81.59
2018-10-18T09:47:26.529Z,81.58
2018-10-18T09:49:54.262Z,82.12
2018-10-18T09:52:22.022Z,81.81
2018-10-18T09:54:49.958Z,81.39
2018-10-18T09:57:17.702Z,81.10
2018-10-18T09:59:45.446Z,81.03
2018-10-18T10:02:18.731Z,80.89
2018-10-18T10:04:46.505Z,79.95
2018-10-18T10:07:14.326Z,80.73
2018-10-18T10:09:42.042Z,81.31
2018-10-18T10:12:09.769Z,80.81
2018-10-18T10:14:37.535Z,81.24
2018-10-18T10:17:05.999Z,80.86
2018-10-18T10:19:33.732Z,80.44
2018-10-18T10:22:01.494Z,80.17
2018-10-18T10:24:29.245Z,79.99
2018-10-18T10:26:56.971Z,80.02
2018-10-18T10:29:24.722Z,79.81
2018-10-18T10:31:52.463Z,80.00
2018-10-18T10:34:20.205Z,79.74
2018-10-18T10:36:47.943Z,79.70
2018-10-18T10:39:15.772Z,79.52
2018-10-18T10:41:43.490Z,78.94
2018-10-18T10:44:11.291Z,79.37
2018-10-18T10:46:40.282Z,78.43
2018-10-18T10:49:08.709Z,78.44
2018-10-18T10:51:36.794Z,78.22
2018-10-18T10:54:05.328Z,79.19
2018-10-18T10:56:33.079Z,78.74
2018-10-18T10:59:05.195Z,79.03
2018-10-18T11:01:32.939Z,78.11
2018-10-18T11:04:00.687Z,79.79
2018-10-18T11:06:29.322Z,79.76
2018-10-18T11:08:57.149Z,78.77
2018-10-18T11:11:24.866Z,79.52
2018-10-18T11:13:52.663Z,79.23
2018-10-18T11:16:20.422Z,79.38
2018-10-18T11:18:48.151Z,79.22
2018-10-18T11:21:17.086Z,78.35
2018-10-18T11:23:44.816Z,77.18
2018-10-18T11:26:12.697Z,77.45
2018-10-18T11:28:40.406Z,77.46
2018-10-18T11:31:08.175Z,77.01
2018-10-18T11:33:35.993Z,77.25
2018-10-18T11:36:03.831Z,76.68
2018-10-18T11:38:31.649Z,76.19
2018-10-18T11:40:59.510Z,76.01
2018-10-18T11:43:27.277Z,76.46
2018-10-18T11:45:55.035Z,76.91
2018-10-18T11:48:22.783Z,77.21
2018-10-18T11:50:50.563Z,76.62
2018-10-18T11:53:18.360Z,76.52
2018-10-18T11:55:46.137Z,76.68
2018-10-18T11:58:14.206Z,76.05
2018-10-18T12:00:42.201Z,75.14
2018-10-18T12:03:09.975Z,75.06
2018-10-18T12:05:37.744Z,76.12
2018-10-18T12:08:05.576Z,76.82
2018-10-18T12:10:33.385Z,75.60
2018-10-18T12:13:01.144Z,75.91
2018-10-18T12:15:28.885Z,76.48
2018-10-18T12:17:56.700Z,77.31
2018-10-18T12:20:24.450Z,77.54
2018-10-18T12:22:52.289Z,77.90
2018-10-18T12:25:20.034Z,77.64
2018-10-18T12:27:47.801Z,77.34
2018-10-18T12:30:15.760Z,76.67
2018-10-18T12:32:43.534Z,77.83
2018-10-18T12:35:11.366Z,77.61
2018-10-18T12:37:39.094Z,77.73
2018-10-18T12:40:07.935Z,77.86
2018-10-18T12:42:37.190Z,77.80
2018-10-18T12:45:06.126Z,77.66
2018-10-18T12:47:33.873Z,76.77
2018-10-18T12:50:01.662Z,76.41
2018-10-18T12:52:29.584Z,76.65
2018-10-18T12:54:57.394Z,77.21
2018-10-18T12:57:25.142Z,76.42
2018-10-18T12:59:52.945Z,76.53
2018-10-18T13:02:20.755Z,75.97
2018-10-18T13:04:48.496Z,76.61
2018-10-18T13:07:16.263Z,75.96
2018-10-18T13:09:43.987Z,75.63
2018-10-18T13:12:11.788Z,76.07
2018-10-18T13:14:39.506Z,76.32
2018-10-18T13:17:07.266Z,75.82
2018-10-18T13:19:35.017Z,75.70
2018-10-18T13:22:02.766Z,76.73
2018-10-18T13:24:31.526Z,77.30
2018-10-18T13:26:59.264Z,77.22
2018-10-18T13:29:27.030Z,76.51
2018-10-18T13:31:54.855Z,76.65
2018-10-18T13:34:22.571Z,77.19
2018-10-18T13:36:50.352Z,77.96
2018-10-18T13:39:18.174Z,78.15
2018-10-18T13:41:45.961Z,79.95
2018-10-18T13:44:13.794Z,79.57
2018-10-18T13:46:41.528Z,79.58
2018-10-18T13:49:09.271Z,80.14
2018-10-18T13:51:37.012Z,80.16
2018-10-18T13:54:05.120Z,79.51
2018-10-18T13:56:32.750Z,79.89
2018-10-18T13:59:00.537Z,79.64
2018-10-18T14:01:28.390Z,78.83
2018-10-18T14:03:56.255Z,78.67
2018-10-18T14:06:24.005Z,79.03
2018-10-18T14:08:51.742Z,78.28
2018-10-18T14:11:19.583Z,78.74
2018-10-18T14:13:47.217Z,78.58
2018-10-18T14:16:15.282Z,78.02
2018-10-18T14:18:43.083Z,78.21
2018-10-18T14:21:10.860Z,78.68
2018-10-18T14:23:38.594Z,79.16
2018-10-18T14:26:06.604Z,79.49
2018-10-18T14:28:34.296Z,79.94
2018-10-18T14:31:02.031Z,80.38
2018-10-18T14:33:30.715Z,80.01
2018-10-18T14:35:58.454Z,79.45
2018-10-18T14:38:26.253Z,80.18
2018-10-18T14:40:53.990Z,81.02
2018-10-18T14:43:21.748Z,81.55
2018-10-18T14:45:49.514Z,82.29
2018-10-18T14:48:17.285Z,82.25
2018-10-18T14:50:45.254Z,82.55
2018-10-18T14:53:12.970Z,82.78
2018-10-18T14:55:40.694Z,83.01
2018-10-18T14:58:08.437Z,80.16
2018-10-18T15:00:36.169Z,81.92
2018-10-18T15:03:04.207Z,82.24
2018-10-18T15:05:31.964Z,81.91
2018-10-18T15:07:59.693Z,83.00
2018-10-18T15:10:27.426Z,82.81
2018-10-18T15:12:55.159Z,82.56
2018-10-18T15:15:22.975Z,81.06
2018-10-18T15:17:50.710Z,82.69
2018-10-18T15:20:18.424Z,81.46
2018-10-18T15:22:46.154Z,82.55
2018-10-18T15:25:13.973Z,81.88
2018-10-18T15:27:42.166Z,82.48
2018-10-18T15:30:10.628Z,84.02
2018-10-18T15:32:38.689Z,84.78
2018-10-18T15:35:07.841Z,84.57
2018-10-18T15:37:35.634Z,82.71
2018-10-18T15:40:03.891Z,82.32
2018-10-18T15:42:31.617Z,82.57
2018-10-18T15:44:59.677Z,84.15
2018-10-18T15:47:27.462Z,84.81
2018-10-18T15:49:55.211Z,85.04
2018-10-18T15:52:22.987Z,85.26
2018-10-18T15:54:50.727Z,85.49
2018-10-18T15:57:18.692Z,85.04
2018-10-18T15:59:46.469Z,85.25
2018-10-18T16:02:14.227Z,85.55
2018-10-18T16:04:41.975Z,84.26
2018-10-18T16:07:09.722Z,85.68
2018-10-18T16:09:37.456Z,86.11
2018-10-18T16:12:05.278Z,87.22
2018-10-18T16:14:33.136Z,88.91
2018-10-18T16:17:01.062Z,89.19
2018-10-18T16:19:28.845Z,89.60
2018-10-18T16:21:56.612Z,89.31
2018-10-18T16:24:24.475Z,89.11
2018-10-18T16:26:52.171Z,89.97
2018-10-18T16:29:19.931Z,89.85
2018-10-18T16:31:47.732Z,90.87
2018-10-18T16:34:15.508Z,89.86
2018-10-18T16:36:43.263Z,89.60
2018-10-18T16:39:12.631Z,90.34
2018-10-18T16:41:40.884Z,91.42
2018-10-18T16:44:08.988Z,92.87
2018-10-18T16:46:36.926Z,92.88
2018-10-18T16:49:05.300Z,92.90
2018-10-18T16:51:33.052Z,93.03
2018-10-18T16:54:01.064Z,93.43
2018-10-18T16:56:28.763Z,93.68
2018-10-18T16:58:56.507Z,93.48
2018-10-18T17:01:24.330Z,93.70
2018-10-18T17:03:52.157Z,93.64
2018-10-18T17:06:19.953Z,93.46
2018-10-18T17:08:47.722Z,93.44
2018-10-18T17:11:15.544Z,93.90
2018-10-18T17:13:43.215Z,94.75
2018-10-18T17:16:10.991Z,94.65
2018-10-18T17:18:39.054Z,93.55
2018-10-18T17:21:06.839Z,92.35
2018-10-18T17:23:34.603Z,93.25
2018-10-18T17:26:02.417Z,93.23
2018-10-18T17:28:30.171Z,93.36
2018-10-18T17:30:57.903Z,93.24
2018-10-18T17:33:25.729Z,93.31
2018-10-18T17:35:53.544Z,92.25
2018-10-18T17:38:21.303Z,92.06
2018-10-18T17:40:49.199Z,92.16
2018-10-18T17:43:16.858Z,91.75
2018-10-18T17:45:44.590Z,91.51
2018-10-18T17:48:12.471Z,91.79
2018-10-18T17:50:40.308Z,92.62
2018-10-18T17:53:08.139Z,92.32
2018-10-18T17:55:35.930Z,92.82
2018-10-18T17:58:03.871Z,92.56
2018-10-18T18:00:31.670Z,92.25
2018-10-18T18:02:59.363Z,91.63
2018-10-18T18:05:27.110Z,91.58
2018-10-18T18:07:54.897Z,91.10
2018-10-18T18:10:22.758Z,91.69
2018-10-18T18:12:50.624Z,91.38
2018-10-18T18:15:18.420Z,91.90
2018-10-18T18:17:46.179Z,92.65
2018-10-18T18:20:13.925Z,92.56
2018-10-18T18:22:41.756Z,93.28
2018-10-18T18:25:10.734Z,92.18
2018-10-18T18:27:38.543Z,92.17
2018-10-18T18:30:09.529Z,92.38
2018-10-18T18:32:37.282Z,92.82
2018-10-18T18:35:05.678Z,92.69
2018-10-18T18:37:33.530Z,92.49
2018-10-18T18:40:01.250Z,92.46
2018-10-18T18:42:29.032Z,92.83
2018-10-18T18:45:02.335Z,92.56
2018-10-18T18:47:30.288Z,92.70
2018-10-18T18:49:57.990Z,92.91
2018-10-18T18:52:25.730Z,92.09
2018-10-18T18:54:53.524Z,91.47
2018-10-18T18:57:21.290Z,91.21
2018-10-18T18:59:49.009Z,91.77
2018-10-18T19:02:16.735Z,91.89
2018-10-18T19:04:44.455Z,92.26
2018-10-18T19:07:12.202Z,92.80
2018-10-18T19:09:39.931Z,91.79
2018-10-18T19:12:07.682Z,91.17
2018-10-18T19:14:35.398Z,91.33
2018-10-18T19:17:03.118Z,91.21
2018-10-18T19:19:30.821Z,91.00
2018-10-18T19:21:58.585Z,90.71
2018-10-18T19:24:26.307Z,91.08
2018-10-18T19:26:54.022Z,90.76
2018-10-18T19:29:21.730Z,91.40
2018-10-18T19:31:49.499Z,91.52
2018-10-18T19:34:17.222Z,92.10
2018-10-18T19:36:44.988Z,92.30
2018-10-18T19:39:12.689Z,91.74
2018-10-18T19:41:40.430Z,90.98
2018-10-18T19:44:08.183Z,90.95
2018-10-18T19:46:35.965Z,90.94
2018-10-18T19:49:03.990Z,90.79
2018-10-18T19:51:31.706Z,91.58
2018-10-18T19:53:59.414Z,91.80
2018-10-18T19:56:27.129Z,92.27
2018-10-18T19:58:55.559Z,92.51
2018-10-18T20:01:23.278Z,91.99
2018-10-18T20:03:51.023Z,91.68
2018-10-18T20:06:18.959Z,91.16
2018-10-18T20:08:46.699Z,92.06
2018-10-18T20:11:14.407Z,92.77
2018-10-18T20:13:42.252Z,92.06
2018-10-18T20:16:09.982Z,92.27
2018-10-18T20:18:37.771Z,92.48
2018-10-18T20:21:05.595Z,92.63
2018-10-18T20:23:33.245Z,91.98
2018-10-18T20:26:01.336Z,91.61
2018-10-18T20:28:28.721Z,92.00
2018-10-18T20:30:56.467Z,92.25
2018-10-18T20:33:24.176Z,92.53
2018-10-18T20:35:51.898Z,91.73
2018-10-18T20:38:19.621Z,92.11
2018-10-18T20:40:47.314Z,92.48
2018-10-18T20:43:15.020Z,92.48
2018-10-18T20:45:42.718Z,92.36
2018-10-18T20:48:10.559Z,92.09
2018-10-18T20:50:38.190Z,92.04
2018-10-18T20:53:05.999Z,91.99
2018-10-18T20:55:33.698Z,92.45
2018-10-18T20:58:01.523Z,92.85
2018-10-18T21:00:29.230Z,92.09
2018-10-18T21:02:56.981Z,92.12
2018-10-18T21:05:24.716Z,92.02
2018-10-18T21:07:52.430Z,91.80
2018-10-18T21:10:20.210Z,92.16
2018-10-18T21:12:47.909Z,92.62
2018-10-18T21:15:15.698Z,93.24
2018-10-18T21:17:43.362Z,93.50
2018-10-18T21:20:11.153Z,92.62
2018-10-18T21:22:38.941Z,92.35
2018-10-18T21:25:06.965Z,92.54
2018-10-18T21:27:34.735Z,92.98
2018-10-18T21:30:02.446Z,93.09
2018-10-18T21:32:30.157Z,93.49
2018-10-18T21:34:57.894Z,93.46
2018-10-18T21:37:25.593Z,93.18
2018-10-18T21:39:53.297Z,93.02
2018-10-18T21:42:20.993Z,92.97
2018-10-18T21:44:49.134Z,92.76
2018-10-18T21:47:17.096Z,93.28
2018-10-18T21:49:44.818Z,93.24
2018-10-18T21:52:12.579Z,93.32
2018-10-18T21:54:40.285Z,93.51
2018-10-18T21:57:08.060Z,93.71
2018-10-18T21:59:35.714Z,93.71
2018-10-18T22:02:03.569Z,93.91
2018-10-18T22:04:31.289Z,93.40
2018-10-18T22:06:59.020Z,93.29
2018-10-18T22:09:26.764Z,93.73
2018-10-18T22:11:54.494Z,93.52
2018-10-18T22:14:22.280Z,93.67
2018-10-18T22:16:50.281Z,93.92
2018-10-18T22:19:17.982Z,94.08
2018-10-18T22:21:45.707Z,93.11
2018-10-18T22:24:13.424Z,92.83
2018-10-18T22:26:41.155Z,93.05
2018-10-18T22:29:08.929Z,93.25
2018-10-18T22:31:36.777Z,93.43
2018-10-18T22:34:04.805Z,93.90
2018-10-18T22:36:32.506Z,94.34
2018-10-18T22:39:00.344Z,94.39
2018-10-18T22:41:28.063Z,93.89
2018-10-18T22:43:55.834Z,93.97
2018-10-18T22:46:23.605Z,93.22
2018-10-18T22:48:51.310Z,91.89
2018-10-18T22:51:19.480Z,92.90
2018-10-18T22:53:47.189Z,92.35
2018-10-18T22:56:14.881Z,92.38
2018-10-18T22:58:42.858Z,92.88
2018-10-18T23:01:10.666Z,92.97
2018-10-18T23:03:38.482Z,91.75
2018-10-18T23:06:06.217Z,93.63
2018-10-18T23:08:33.925Z,93.69
2018-10-18T23:11:01.647Z,93.31
2018-10-18T23:13:29.362Z,93.92
2018-10-18T23:15:57.112Z,94.08
2018-10-18T23:18:24.822Z,94.52
2018-10-18T23:20:52.545Z,95.21
2018-10-18T23:23:20.246Z,95.98
2018-10-18T23:25:47.952Z,96.44
2018-10-18T23:28:15.706Z,95.58
2018-10-18T23:30:43.432Z,94.95
2018-10-18T23:33:11.189Z,94.37
2018-10-18T23:35:38.903Z,94.58
2018-10-18T23:38:06.615Z,92.77
2018-10-18T23:40:34.336Z,94.21
2018-10-18T23:43:02.099Z,95.19
2018-10-18T23:45:29.793Z,95.65
2018-10-18T23:47:57.510Z,96.07
2018-10-18T23:50:25.222Z,96.43
2018-10-18T23:52:52.956Z,96.10
2018-10-18T23:55:20.727Z,96.13
2018-10-18T23:57:48.451Z,96.40
